sensor_id;sensor_type;location;lat;lon;timestamp;P1;durP1;ratioP1;P2;durP2;ratioP2
17993;SDS011;9122;48.406;9.984;2023-07-13T00:02:37;7.93;;;6.60;;
17993;SDS011;9122;48.406;9.984;2023-07-13T00:05:22;7.63;;;6.93;;
17993;SDS011;9122;48.406;9.984;2023-07-13T00:08:07;7.82;;;6.63;;
17993;SDS011;9122;48.406;9.984;2023-07-13T00:10:52;8.35;;;5.95;;
17993;SDS011;9122;48.406;9.984;2023-07-13T00:13:40;7.28;;;6.40;;
17993;SDS011;9122;48.406;9.984;2023-07-13T00:16:25;9.55;;;6.75;;
17993;SDS011;9122;48.406;9.984;2023-07-13T00:19:11;7.88;;;7.18;;
17993;SDS011;9122;48.406;9.984;2023-07-13T00:21:56;7.55;;;6.63;;
17993;SDS011;9122;48.406;9.984;2023-07-13T00:24:40;8.18;;;6.93;;
17993;SDS011;9122;48.406;9.984;2023-07-13T00:27:25;6.90;;;6.20;;
17993;SDS011;9122;48.406;9.984;2023-07-13T00:30:10;6.47;;;5.85;;
17993;SDS011;9122;48.406;9.984;2023-07-13T00:32:55;9.25;;;5.53;;
17993;SDS011;9122;48.406;9.984;2023-07-13T00:35:39;6.30;;;4.78;;
17993;SDS011;9122;48.406;9.984;2023-07-13T00:38:27;5.78;;;5.22;;
17993;SDS011;9122;48.406;9.984;2023-07-13T00:41:11;4.78;;;4.47;;
17993;SDS011;9122;48.406;9.984;2023-07-13T00:43:55;4.50;;;3.95;;
17993;SDS011;9122;48.406;9.984;2023-07-13T00:46:40;5.47;;;3.80;;
17993;SDS011;9122;48.406;9.984;2023-07-13T00:49:25;4.40;;;4.05;;
17993;SDS011;9122;48.406;9.984;2023-07-13T00:52:12;4.65;;;3.85;;
17993;SDS011;9122;48.406;9.984;2023-07-13T00:54:56;5.35;;;3.03;;
17993;SDS011;9122;48.406;9.984;2023-07-13T00:57:41;4.50;;;3.90;;
17993;SDS011;9122;48.406;9.984;2023-07-13T01:00:27;4.95;;;3.42;;
17993;SDS011;9122;48.406;9.984;2023-07-13T01:03:13;3.88;;;3.40;;
17993;SDS011;9122;48.406;9.984;2023-07-13T01:05:57;3.67;;;3.38;;
17993;SDS011;9122;48.406;9.984;2023-07-13T01:08:44;5.03;;;2.95;;
17993;SDS011;9122;48.406;9.984;2023-07-13T01:11:28;3.53;;;3.22;;
17993;SDS011;9122;48.406;9.984;2023-07-13T01:14:13;3.45;;;3.00;;
17993;SDS011;9122;48.406;9.984;2023-07-13T01:16:58;2.67;;;2.53;;
17993;SDS011;9122;48.406;9.984;2023-07-13T01:19:44;4.93;;;2.40;;
17993;SDS011;9122;48.406;9.984;2023-07-13T01:22:29;2.88;;;2.67;;
17993;SDS011;9122;48.406;9.984;2023-07-13T01:25:16;2.63;;;2.42;;
17993;SDS011;9122;48.406;9.984;2023-07-13T01:28:01;3.55;;;2.55;;
17993;SDS011;9122;48.406;9.984;2023-07-13T01:30:47;3.22;;;2.80;;
17993;SDS011;9122;48.406;9.984;2023-07-13T01:33:32;3.33;;;2.40;;
17993;SDS011;9122;48.406;9.984;2023-07-13T01:36:17;2.92;;;2.72;;
17993;SDS011;9122;48.406;9.984;2023-07-13T01:39:02;2.42;;;2.30;;
17993;SDS011;9122;48.406;9.984;2023-07-13T01:41:46;3.50;;;2.63;;
17993;SDS011;9122;48.406;9.984;2023-07-13T01:44:31;2.00;;;1.90;;
17993;SDS011;9122;48.406;9.984;2023-07-13T01:47:16;2.75;;;2.55;;
17993;SDS011;9122;48.406;9.984;2023-07-13T01:50:00;6.63;;;2.85;;
17993;SDS011;9122;48.406;9.984;2023-07-13T01:52:45;4.53;;;2.40;;
17993;SDS011;9122;48.406;9.984;2023-07-13T01:55:30;4.05;;;2.88;;
17993;SDS011;9122;48.406;9.984;2023-07-13T01:58:15;3.17;;;2.90;;
17993;SDS011;9122;48.406;9.984;2023-07-13T02:01:00;3.47;;;2.63;;
17993;SDS011;9122;48.406;9.984;2023-07-13T02:03:44;4.18;;;2.50;;
17993;SDS011;9122;48.406;9.984;2023-07-13T02:06:30;5.47;;;2.22;;
17993;SDS011;9122;48.406;9.984;2023-07-13T02:09:15;3.00;;;2.45;;
17993;SDS011;9122;48.406;9.984;2023-07-13T02:11:59;2.17;;;1.98;;
17993;SDS011;9122;48.406;9.984;2023-07-13T02:14:44;2.78;;;1.90;;
17993;SDS011;9122;48.406;9.984;2023-07-13T02:17:29;4.57;;;2.20;;
17993;SDS011;9122;48.406;9.984;2023-07-13T02:20:13;2.25;;;2.15;;
17993;SDS011;9122;48.406;9.984;2023-07-13T02:22:58;2.10;;;2.00;;
17993;SDS011;9122;48.406;9.984;2023-07-13T02:25:43;2.95;;;2.33;;
17993;SDS011;9122;48.406;9.984;2023-07-13T02:28:28;2.83;;;2.05;;
17993;SDS011;9122;48.406;9.984;2023-07-13T02:31:13;2.58;;;2.15;;
17993;SDS011;9122;48.406;9.984;2023-07-13T02:33:59;2.05;;;1.95;;
17993;SDS011;9122;48.406;9.984;2023-07-13T02:36:44;2.22;;;1.80;;
17993;SDS011;9122;48.406;9.984;2023-07-13T02:39:28;3.60;;;2.03;;
17993;SDS011;9122;48.406;9.984;2023-07-13T02:42:13;2.15;;;2.00;;
17993;SDS011;9122;48.406;9.984;2023-07-13T02:44:57;2.42;;;2.22;;
17993;SDS011;9122;48.406;9.984;2023-07-13T02:47:42;3.90;;;2.85;;
17993;SDS011;9122;48.406;9.984;2023-07-13T02:50:27;2.40;;;2.20;;
17993;SDS011;9122;48.406;9.984;2023-07-13T02:53:11;3.25;;;2.17;;
17993;SDS011;9122;48.406;9.984;2023-07-13T02:55:56;6.63;;;2.00;;
17993;SDS011;9122;48.406;9.984;2023-07-13T02:58:40;2.22;;;2.08;;
17993;SDS011;9122;48.406;9.984;2023-07-13T03:01:25;4.32;;;2.40;;
17993;SDS011;9122;48.406;9.984;2023-07-13T03:04:10;1.75;;;1.50;;
17993;SDS011;9122;48.406;9.984;2023-07-13T03:06:55;3.72;;;2.00;;
17993;SDS011;9122;48.406;9.984;2023-07-13T03:09:41;2.20;;;2.00;;
17993;SDS011;9122;48.406;9.984;2023-07-13T03:12:26;1.63;;;1.52;;
17993;SDS011;9122;48.406;9.984;2023-07-13T03:15:10;1.80;;;1.70;;
17993;SDS011;9122;48.406;9.984;2023-07-13T03:17:54;2.88;;;1.63;;
17993;SDS011;9122;48.406;9.984;2023-07-13T03:20:38;3.30;;;1.65;;
17993;SDS011;9122;48.406;9.984;2023-07-13T03:23:23;3.20;;;1.85;;
17993;SDS011;9122;48.406;9.984;2023-07-13T03:26:09;2.08;;;1.90;;
17993;SDS011;9122;48.406;9.984;2023-07-13T03:28:57;1.67;;;1.58;;
17993;SDS011;9122;48.406;9.984;2023-07-13T03:31:41;2.17;;;2.08;;
17993;SDS011;9122;48.406;9.984;2023-07-13T03:34:26;2.40;;;2.20;;
17993;SDS011;9122;48.406;9.984;2023-07-13T03:37:11;2.33;;;2.13;;
17993;SDS011;9122;48.406;9.984;2023-07-13T03:39:55;2.72;;;2.53;;
17993;SDS011;9122;48.406;9.984;2023-07-13T03:42:39;2.17;;;2.08;;
17993;SDS011;9122;48.406;9.984;2023-07-13T03:45:23;2.05;;;1.95;;
17993;SDS011;9122;48.406;9.984;2023-07-13T03:48:08;7.97;;;1.88;;
17993;SDS011;9122;48.406;9.984;2023-07-13T03:50:52;2.45;;;2.15;;
17993;SDS011;9122;48.406;9.984;2023-07-13T03:53:39;2.17;;;2.07;;
17993;SDS011;9122;48.406;9.984;2023-07-13T03:56:25;2.00;;;1.90;;
17993;SDS011;9122;48.406;9.984;2023-07-13T03:59:09;2.28;;;2.17;;
17993;SDS011;9122;48.406;9.984;2023-07-13T04:01:53;2.63;;;2.42;;
17993;SDS011;9122;48.406;9.984;2023-07-13T04:04:38;2.40;;;2.20;;
17993;SDS011;9122;48.406;9.984;2023-07-13T04:07:24;2.75;;;2.55;;
17993;SDS011;9122;48.406;9.984;2023-07-13T04:10:08;4.93;;;2.87;;
17993;SDS011;9122;48.406;9.984;2023-07-13T04:12:53;2.85;;;2.58;;
17993;SDS011;9122;48.406;9.984;2023-07-13T04:15:37;3.95;;;3.25;;
17993;SDS011;9122;48.406;9.984;2023-07-13T04:18:23;4.90;;;2.43;;
17993;SDS011;9122;48.406;9.984;2023-07-13T04:21:08;3.20;;;2.50;;
17993;SDS011;9122;48.406;9.984;2023-07-13T04:23:53;2.30;;;2.10;;
17993;SDS011;9122;48.406;9.984;2023-07-13T04:26:37;2.37;;;2.17;;
17993;SDS011;9122;48.406;9.984;2023-07-13T04:29:23;2.40;;;2.20;;
17993;SDS011;9122;48.406;9.984;2023-07-13T04:32:08;3.03;;;2.80;;
17993;SDS011;9122;48.406;9.984;2023-07-13T04:34:52;2.63;;;2.42;;
17993;SDS011;9122;48.406;9.984;2023-07-13T04:37:37;2.43;;;2.23;;
17993;SDS011;9122;48.406;9.984;2023-07-13T04:40:21;2.55;;;2.20;;
17993;SDS011;9122;48.406;9.984;2023-07-13T04:43:05;2.83;;;2.63;;
17993;SDS011;9122;48.406;9.984;2023-07-13T04:45:50;2.53;;;1.90;;
17993;SDS011;9122;48.406;9.984;2023-07-13T04:48:34;2.30;;;2.20;;
17993;SDS011;9122;48.406;9.984;2023-07-13T04:51:19;2.63;;;2.33;;
17993;SDS011;9122;48.406;9.984;2023-07-13T04:54:04;2.37;;;2.27;;
17993;SDS011;9122;48.406;9.984;2023-07-13T04:56:48;5.15;;;2.30;;
17993;SDS011;9122;48.406;9.984;2023-07-13T04:59:32;2.88;;;2.40;;
17993;SDS011;9122;48.406;9.984;2023-07-13T05:02:17;7.13;;;2.70;;
17993;SDS011;9122;48.406;9.984;2023-07-13T05:05:04;2.60;;;2.40;;
17993;SDS011;9122;48.406;9.984;2023-07-13T05:07:49;3.53;;;2.20;;
17993;SDS011;9122;48.406;9.984;2023-07-13T05:10:33;2.63;;;2.43;;
17993;SDS011;9122;48.406;9.984;2023-07-13T05:13:18;5.28;;;2.78;;
17993;SDS011;9122;48.406;9.984;2023-07-13T05:16:04;2.50;;;2.37;;
17993;SDS011;9122;48.406;9.984;2023-07-13T05:18:52;2.78;;;2.38;;
17993;SDS011;9122;48.406;9.984;2023-07-13T05:21:37;2.63;;;2.42;;
17993;SDS011;9122;48.406;9.984;2023-07-13T05:24:21;2.70;;;2.50;;
17993;SDS011;9122;48.406;9.984;2023-07-13T05:27:06;2.70;;;2.20;;
17993;SDS011;9122;48.406;9.984;2023-07-13T05:29:51;2.57;;;2.37;;
17993;SDS011;9122;48.406;9.984;2023-07-13T05:32:35;4.53;;;2.67;;
17993;SDS011;9122;48.406;9.984;2023-07-13T05:35:19;4.70;;;2.83;;
17993;SDS011;9122;48.406;9.984;2023-07-13T05:38:04;5.82;;;3.53;;
17993;SDS011;9122;48.406;9.984;2023-07-13T05:40:49;5.45;;;2.58;;
17993;SDS011;9122;48.406;9.984;2023-07-13T05:43:34;6.75;;;3.13;;
17993;SDS011;9122;48.406;9.984;2023-07-13T05:46:18;2.83;;;2.63;;
17993;SDS011;9122;48.406;9.984;2023-07-13T05:49:02;3.80;;;2.85;;
17993;SDS011;9122;48.406;9.984;2023-07-13T05:51:47;2.67;;;2.50;;
17993;SDS011;9122;48.406;9.984;2023-07-13T05:54:31;2.85;;;2.42;;
17993;SDS011;9122;48.406;9.984;2023-07-13T05:57:16;5.22;;;2.08;;
17993;SDS011;9122;48.406;9.984;2023-07-13T06:00:00;2.63;;;2.42;;
17993;SDS011;9122;48.406;9.984;2023-07-13T06:02:45;3.20;;;2.20;;
17993;SDS011;9122;48.406;9.984;2023-07-13T06:05:29;4.03;;;2.30;;
17993;SDS011;9122;48.406;9.984;2023-07-13T06:08:13;7.47;;;2.70;;
17993;SDS011;9122;48.406;9.984;2023-07-13T06:11:01;14.32;;;2.95;;
17993;SDS011;9122;48.406;9.984;2023-07-13T06:13:49;2.33;;;2.08;;
17993;SDS011;9122;48.406;9.984;2023-07-13T06:16:34;5.50;;;2.22;;
17993;SDS011;9122;48.406;9.984;2023-07-13T06:19:19;5.30;;;2.35;;
17993;SDS011;9122;48.406;9.984;2023-07-13T06:22:03;3.42;;;2.17;;
17993;SDS011;9122;48.406;9.984;2023-07-13T06:24:48;15.00;;;2.92;;
17993;SDS011;9122;48.406;9.984;2023-07-13T06:27:32;5.90;;;2.03;;
17993;SDS011;9122;48.406;9.984;2023-07-13T06:30:17;3.10;;;1.92;;
17993;SDS011;9122;48.406;9.984;2023-07-13T06:33:02;6.95;;;2.90;;
17993;SDS011;9122;48.406;9.984;2023-07-13T06:35:46;2.60;;;2.40;;
17993;SDS011;9122;48.406;9.984;2023-07-13T06:38:31;5.25;;;2.47;;
17993;SDS011;9122;48.406;9.984;2023-07-13T06:41:16;3.28;;;2.65;;
17993;SDS011;9122;48.406;9.984;2023-07-13T06:44:00;3.85;;;2.20;;
17993;SDS011;9122;48.406;9.984;2023-07-13T06:46:45;2.35;;;2.22;;
17993;SDS011;9122;48.406;9.984;2023-07-13T06:49:29;2.50;;;2.05;;
17993;SDS011;9122;48.406;9.984;2023-07-13T06:52:13;2.30;;;2.10;;
17993;SDS011;9122;48.406;9.984;2023-07-13T06:54:57;3.17;;;2.15;;
17993;SDS011;9122;48.406;9.984;2023-07-13T06:57:42;3.00;;;2.47;;
17993;SDS011;9122;48.406;9.984;2023-07-13T07:00:27;2.20;;;2.10;;
17993;SDS011;9122;48.406;9.984;2023-07-13T07:03:12;2.10;;;1.90;;
17993;SDS011;9122;48.406;9.984;2023-07-13T07:06:00;3.88;;;2.83;;
17993;SDS011;9122;48.406;9.984;2023-07-13T07:08:57;1.67;;;1.58;;
17993;SDS011;9122;48.406;9.984;2023-07-13T07:11:41;3.92;;;2.30;;
17993;SDS011;9122;48.406;9.984;2023-07-13T07:14:25;1.95;;;1.75;;
17993;SDS011;9122;48.406;9.984;2023-07-13T07:17:10;3.15;;;1.70;;
17993;SDS011;9122;48.406;9.984;2023-07-13T07:19:54;1.90;;;1.70;;
17993;SDS011;9122;48.406;9.984;2023-07-13T07:22:38;2.05;;;1.92;;
17993;SDS011;9122;48.406;9.984;2023-07-13T07:25:23;4.22;;;1.60;;
17993;SDS011;9122;48.406;9.984;2023-07-13T07:28:16;2.25;;;1.83;;
17993;SDS011;9122;48.406;9.984;2023-07-13T07:31:03;5.78;;;2.00;;
17993;SDS011;9122;48.406;9.984;2023-07-13T07:33:49;4.70;;;1.63;;
17993;SDS011;9122;48.406;9.984;2023-07-13T07:36:34;2.50;;;1.90;;
17993;SDS011;9122;48.406;9.984;2023-07-13T07:39:18;3.15;;;2.08;;
17993;SDS011;9122;48.406;9.984;2023-07-13T07:42:02;2.20;;;2.00;;
17993;SDS011;9122;48.406;9.984;2023-07-13T07:44:47;1.85;;;1.75;;
17993;SDS011;9122;48.406;9.984;2023-07-13T07:47:31;2.15;;;1.95;;
17993;SDS011;9122;48.406;9.984;2023-07-13T07:50:15;2.28;;;1.73;;
17993;SDS011;9122;48.406;9.984;2023-07-13T07:53:00;2.38;;;2.20;;
17993;SDS011;9122;48.406;9.984;2023-07-13T07:55:46;4.53;;;2.05;;
17993;SDS011;9122;48.406;9.984;2023-07-13T07:58:31;2.28;;;2.13;;
17993;SDS011;9122;48.406;9.984;2023-07-13T08:01:15;2.72;;;1.95;;
17993;SDS011;9122;48.406;9.984;2023-07-13T08:03:59;3.97;;;2.15;;
17993;SDS011;9122;48.406;9.984;2023-07-13T08:06:44;5.28;;;2.00;;
17993;SDS011;9122;48.406;9.984;2023-07-13T08:09:31;2.47;;;2.28;;
17993;SDS011;9122;48.406;9.984;2023-07-13T08:12:15;2.40;;;2.03;;
17993;SDS011;9122;48.406;9.984;2023-07-13T08:15:00;3.35;;;3.08;;
17993;SDS011;9122;48.406;9.984;2023-07-13T08:17:45;5.78;;;1.85;;
17993;SDS011;9122;48.406;9.984;2023-07-13T08:20:33;3.75;;;2.05;;
17993;SDS011;9122;48.406;9.984;2023-07-13T08:23:23;2.00;;;1.90;;
17993;SDS011;9122;48.406;9.984;2023-07-13T08:26:07;4.13;;;2.05;;
17993;SDS011;9122;48.406;9.984;2023-07-13T08:28:53;5.68;;;2.40;;
17993;SDS011;9122;48.406;9.984;2023-07-13T08:31:38;1.88;;;1.77;;
17993;SDS011;9122;48.406;9.984;2023-07-13T08:34:22;3.53;;;2.40;;
17993;SDS011;9122;48.406;9.984;2023-07-13T08:37:07;7.63;;;2.40;;
17993;SDS011;9122;48.406;9.984;2023-07-13T08:39:51;4.15;;;1.80;;
17993;SDS011;9122;48.406;9.984;2023-07-13T08:42:37;4.97;;;1.95;;
17993;SDS011;9122;48.406;9.984;2023-07-13T08:45:44;2.15;;;1.95;;
17993;SDS011;9122;48.406;9.984;2023-07-13T08:48:44;2.53;;;2.00;;
17993;SDS011;9122;48.406;9.984;2023-07-13T08:51:41;1.70;;;1.60;;
17993;SDS011;9122;48.406;9.984;2023-07-13T08:54:37;3.95;;;2.00;;
17993;SDS011;9122;48.406;9.984;2023-07-13T08:57:28;1.90;;;1.80;;
17993;SDS011;9122;48.406;9.984;2023-07-13T09:00:17;2.97;;;1.83;;
17993;SDS011;9122;48.406;9.984;2023-07-13T09:03:01;3.17;;;2.10;;
17993;SDS011;9122;48.406;9.984;2023-07-13T09:05:48;2.90;;;2.67;;
17993;SDS011;9122;48.406;9.984;2023-07-13T09:08:52;4.78;;;1.95;;
17993;SDS011;9122;48.406;9.984;2023-07-13T09:14:45;3.47;;;1.80;;
17993;SDS011;9122;48.406;9.984;2023-07-13T09:17:36;3.03;;;1.77;;
17993;SDS011;9122;48.406;9.984;2023-07-13T09:23:28;2.60;;;1.92;;
17993;SDS011;9122;48.406;9.984;2023-07-13T09:26:16;2.40;;;2.05;;
17993;SDS011;9122;48.406;9.984;2023-07-13T09:29:19;2.30;;;1.73;;
17993;SDS011;9122;48.406;9.984;2023-07-13T09:32:10;3.30;;;1.60;;
17993;SDS011;9122;48.406;9.984;2023-07-13T09:34:58;1.75;;;1.65;;
17993;SDS011;9122;48.406;9.984;2023-07-13T09:37:44;2.53;;;1.60;;
17993;SDS011;9122;48.406;9.984;2023-07-13T09:40:34;2.00;;;1.90;;
17993;SDS011;9122;48.406;9.984;2023-07-13T09:43:26;1.77;;;1.67;;
17993;SDS011;9122;48.406;9.984;2023-07-13T09:46:20;1.92;;;1.83;;
17993;SDS011;9122;48.406;9.984;2023-07-13T09:49:07;2.20;;;1.67;;
17993;SDS011;9122;48.406;9.984;2023-07-13T09:51:58;1.83;;;1.63;;
17993;SDS011;9122;48.406;9.984;2023-07-13T09:54:45;1.67;;;1.58;;
17993;SDS011;9122;48.406;9.984;2023-07-13T09:57:32;6.28;;;2.35;;
17993;SDS011;9122;48.406;9.984;2023-07-13T10:00:28;4.55;;;2.28;;
17993;SDS011;9122;48.406;9.984;2023-07-13T10:03:16;8.00;;;2.00;;
17993;SDS011;9122;48.406;9.984;2023-07-13T10:06:14;1.70;;;1.60;;
17993;SDS011;9122;48.406;9.984;2023-07-13T10:09:01;1.80;;;1.70;;
17993;SDS011;9122;48.406;9.984;2023-07-13T10:11:45;3.40;;;2.20;;
17993;SDS011;9122;48.406;9.984;2023-07-13T10:14:30;2.08;;;1.92;;
17993;SDS011;9122;48.406;9.984;2023-07-13T10:17:14;1.70;;;1.60;;
17993;SDS011;9122;48.406;9.984;2023-07-13T10:20:03;2.03;;;1.90;;
17993;SDS011;9122;48.406;9.984;2023-07-13T10:23:05;1.95;;;1.75;;
17993;SDS011;9122;48.406;9.984;2023-07-13T10:25:58;2.17;;;1.95;;
17993;SDS011;9122;48.406;9.984;2023-07-13T10:28:44;2.28;;;1.90;;
17993;SDS011;9122;48.406;9.984;2023-07-13T10:31:31;7.22;;;2.17;;
17993;SDS011;9122;48.406;9.984;2023-07-13T10:34:15;2.10;;;1.88;;
17993;SDS011;9122;48.406;9.984;2023-07-13T10:37:01;1.58;;;1.48;;
17993;SDS011;9122;48.406;9.984;2023-07-13T10:39:45;2.92;;;1.55;;
17993;SDS011;9122;48.406;9.984;2023-07-13T10:42:32;3.25;;;2.05;;
17993;SDS011;9122;48.406;9.984;2023-07-13T10:45:24;1.80;;;1.70;;
17993;SDS011;9122;48.406;9.984;2023-07-13T10:48:14;3.85;;;1.45;;
17993;SDS011;9122;48.406;9.984;2023-07-13T10:50:59;2.20;;;1.75;;
17993;SDS011;9122;48.406;9.984;2023-07-13T10:53:45;5.57;;;5.03;;
17993;SDS011;9122;48.406;9.984;2023-07-13T10:56:29;3.00;;;1.88;;
17993;SDS011;9122;48.406;9.984;2023-07-13T10:59:15;2.17;;;1.60;;
17993;SDS011;9122;48.406;9.984;2023-07-13T11:02:15;2.55;;;2.35;;
17993;SDS011;9122;48.406;9.984;2023-07-13T11:15:00;2.65;;;1.90;;
17993;SDS011;9122;48.406;9.984;2023-07-13T11:23:07;2.33;;;2.20;;
17993;SDS011;9122;48.406;9.984;2023-07-13T11:25:56;1.95;;;1.85;;
17993;SDS011;9122;48.406;9.984;2023-07-13T11:28:41;2.03;;;1.85;;
17993;SDS011;9122;48.406;9.984;2023-07-13T11:31:26;1.40;;;1.38;;
17993;SDS011;9122;48.406;9.984;2023-07-13T11:34:21;4.72;;;2.00;;
17993;SDS011;9122;48.406;9.984;2023-07-13T11:37:12;1.75;;;1.50;;
17993;SDS011;9122;48.406;9.984;2023-07-13T11:40:00;1.80;;;1.70;;
17993;SDS011;9122;48.406;9.984;2023-07-13T11:42:45;1.80;;;1.70;;
17993;SDS011;9122;48.406;9.984;2023-07-13T11:45:30;1.90;;;1.80;;
17993;SDS011;9122;48.406;9.984;2023-07-13T11:48:21;2.50;;;1.98;;
17993;SDS011;9122;48.406;9.984;2023-07-13T11:51:15;2.03;;;1.90;;
17993;SDS011;9122;48.406;9.984;2023-07-13T11:54:24;3.90;;;2.08;;
17993;SDS011;9122;48.406;9.984;2023-07-13T11:57:24;2.15;;;2.00;;
17993;SDS011;9122;48.406;9.984;2023-07-13T12:00:13;1.83;;;1.67;;
17993;SDS011;9122;48.406;9.984;2023-07-13T12:03:02;1.67;;;1.58;;
17993;SDS011;9122;48.406;9.984;2023-07-13T12:09:13;2.08;;;1.77;;
17993;SDS011;9122;48.406;9.984;2023-07-13T12:12:02;1.40;;;1.30;;
17993;SDS011;9122;48.406;9.984;2023-07-13T12:14:50;2.25;;;1.50;;
17993;SDS011;9122;48.406;9.984;2023-07-13T12:17:38;1.60;;;1.50;;
17993;SDS011;9122;48.406;9.984;2023-07-13T12:20:25;1.50;;;1.40;;
17993;SDS011;9122;48.406;9.984;2023-07-13T12:26:33;1.70;;;1.60;;
17993;SDS011;9122;48.406;9.984;2023-07-13T12:29:18;2.60;;;1.40;;
17993;SDS011;9122;48.406;9.984;2023-07-13T12:32:03;1.80;;;1.70;;
17993;SDS011;9122;48.406;9.984;2023-07-13T12:34:54;1.75;;;1.65;;
17993;SDS011;9122;48.406;9.984;2023-07-13T12:37:43;2.40;;;1.92;;
17993;SDS011;9122;48.406;9.984;2023-07-13T12:40:33;1.70;;;1.60;;
17993;SDS011;9122;48.406;9.984;2023-07-13T12:43:22;1.52;;;1.50;;
17993;SDS011;9122;48.406;9.984;2023-07-13T12:46:20;2.72;;;1.70;;
17993;SDS011;9122;48.406;9.984;2023-07-13T12:49:07;1.77;;;1.67;;
17993;SDS011;9122;48.406;9.984;2023-07-13T12:51:55;4.03;;;1.80;;
17993;SDS011;9122;48.406;9.984;2023-07-13T12:54:58;1.25;;;1.23;;
17993;SDS011;9122;48.406;9.984;2023-07-13T13:00:35;2.10;;;1.90;;
17993;SDS011;9122;48.406;9.984;2023-07-13T13:03:32;1.98;;;1.40;;
17993;SDS011;9122;48.406;9.984;2023-07-13T13:06:21;1.90;;;1.80;;
17993;SDS011;9122;48.406;9.984;2023-07-13T13:09:14;1.25;;;1.20;;
17993;SDS011;9122;48.406;9.984;2023-07-13T13:12:00;2.42;;;1.70;;
17993;SDS011;9122;48.406;9.984;2023-07-13T13:14:44;1.60;;;1.50;;
17993;SDS011;9122;48.406;9.984;2023-07-13T13:17:29;3.00;;;1.52;;
17993;SDS011;9122;48.406;9.984;2023-07-13T13:20:20;1.67;;;1.58;;
17993;SDS011;9122;48.406;9.984;2023-07-13T13:23:07;1.55;;;1.45;;
17993;SDS011;9122;48.406;9.984;2023-07-13T13:25:56;1.85;;;1.75;;
17993;SDS011;9122;48.406;9.984;2023-07-13T13:28:41;1.98;;;1.85;;
17993;SDS011;9122;48.406;9.984;2023-07-13T13:31:27;4.32;;;1.88;;
17993;SDS011;9122;48.406;9.984;2023-07-13T13:34:12;1.80;;;1.63;;
17993;SDS011;9122;48.406;9.984;2023-07-13T13:36:59;1.58;;;1.48;;
17993;SDS011;9122;48.406;9.984;2023-07-13T13:39:44;1.58;;;1.48;;
17993;SDS011;9122;48.406;9.984;2023-07-13T13:42:29;1.80;;;1.70;;
17993;SDS011;9122;48.406;9.984;2023-07-13T13:45:14;1.92;;;1.45;;
17993;SDS011;9122;48.406;9.984;2023-07-13T13:47:59;2.72;;;1.73;;
17993;SDS011;9122;48.406;9.984;2023-07-13T13:50:44;2.38;;;2.05;;
17993;SDS011;9122;48.406;9.984;2023-07-13T13:53:28;1.98;;;1.80;;
17993;SDS011;9122;48.406;9.984;2023-07-13T13:56:16;1.60;;;1.50;;
17993;SDS011;9122;48.406;9.984;2023-07-13T13:59:02;1.58;;;1.48;;
17993;SDS011;9122;48.406;9.984;2023-07-13T14:01:48;2.10;;;1.70;;
17993;SDS011;9122;48.406;9.984;2023-07-13T14:04:33;1.63;;;1.52;;
17993;SDS011;9122;48.406;9.984;2023-07-13T14:07:17;2.05;;;1.60;;
17993;SDS011;9122;48.406;9.984;2023-07-13T14:10:08;3.55;;;1.88;;
17993;SDS011;9122;48.406;9.984;2023-07-13T14:13:01;3.88;;;2.00;;
17993;SDS011;9122;48.406;9.984;2023-07-13T14:15:46;3.92;;;2.00;;
17993;SDS011;9122;48.406;9.984;2023-07-13T14:18:31;2.00;;;1.90;;
17993;SDS011;9122;48.406;9.984;2023-07-13T14:21:22;3.13;;;2.10;;
17993;SDS011;9122;48.406;9.984;2023-07-13T14:24:06;3.20;;;2.30;;
17993;SDS011;9122;48.406;9.984;2023-07-13T14:26:51;2.90;;;2.08;;
17993;SDS011;9122;48.406;9.984;2023-07-13T14:29:35;4.75;;;1.83;;
17993;SDS011;9122;48.406;9.984;2023-07-13T14:32:20;1.80;;;1.70;;
17993;SDS011;9122;48.406;9.984;2023-07-13T14:35:04;4.35;;;2.10;;
17993;SDS011;9122;48.406;9.984;2023-07-13T14:37:49;1.80;;;1.70;;
17993;SDS011;9122;48.406;9.984;2023-07-13T14:40:34;2.13;;;1.60;;
17993;SDS011;9122;48.406;9.984;2023-07-13T14:43:19;1.70;;;1.60;;
17993;SDS011;9122;48.406;9.984;2023-07-13T14:46:03;1.95;;;1.73;;
17993;SDS011;9122;48.406;9.984;2023-07-13T14:48:47;2.03;;;1.92;;
17993;SDS011;9122;48.406;9.984;2023-07-13T14:51:32;1.73;;;1.63;;
17993;SDS011;9122;48.406;9.984;2023-07-13T14:54:18;2.33;;;2.13;;
17993;SDS011;9122;48.406;9.984;2023-07-13T14:57:03;2.15;;;1.90;;
17993;SDS011;9122;48.406;9.984;2023-07-13T14:59:47;1.75;;;1.65;;
17993;SDS011;9122;48.406;9.984;2023-07-13T15:02:34;2.03;;;1.80;;
17993;SDS011;9122;48.406;9.984;2023-07-13T15:05:22;3.92;;;2.08;;
17993;SDS011;9122;48.406;9.984;2023-07-13T15:08:08;1.75;;;1.65;;
17993;SDS011;9122;48.406;9.984;2023-07-13T15:10:54;2.40;;;2.20;;
17993;SDS011;9122;48.406;9.984;2023-07-13T15:13:43;2.42;;;1.58;;
17993;SDS011;9122;48.406;9.984;2023-07-13T15:16:32;2.17;;;1.55;;
17993;SDS011;9122;48.406;9.984;2023-07-13T15:19:18;2.83;;;1.67;;
17993;SDS011;9122;48.406;9.984;2023-07-13T15:22:03;2.95;;;1.70;;
17993;SDS011;9122;48.406;9.984;2023-07-13T15:24:49;3.53;;;1.90;;
17993;SDS011;9122;48.406;9.984;2023-07-13T15:27:33;3.92;;;2.08;;
17993;SDS011;9122;48.406;9.984;2023-07-13T15:30:20;1.85;;;1.75;;
17993;SDS011;9122;48.406;9.984;2023-07-13T15:33:09;2.38;;;2.17;;
17993;SDS011;9122;48.406;9.984;2023-07-13T15:36:05;1.75;;;1.65;;
17993;SDS011;9122;48.406;9.984;2023-07-13T15:38:50;2.20;;;2.00;;
17993;SDS011;9122;48.406;9.984;2023-07-13T15:41:37;1.52;;;1.42;;
17993;SDS011;9122;48.406;9.984;2023-07-13T15:47:10;1.75;;;1.65;;
17993;SDS011;9122;48.406;9.984;2023-07-13T15:49:56;1.55;;;1.50;;
17993;SDS011;9122;48.406;9.984;2023-07-13T15:52:42;1.67;;;1.58;;
17993;SDS011;9122;48.406;9.984;2023-07-13T15:55:29;1.67;;;1.58;;
17993;SDS011;9122;48.406;9.984;2023-07-13T15:58:14;2.00;;;1.80;;
17993;SDS011;9122;48.406;9.984;2023-07-13T16:00:58;1.70;;;1.60;;
17993;SDS011;9122;48.406;9.984;2023-07-13T16:03:43;1.52;;;1.42;;
17993;SDS011;9122;48.406;9.984;2023-07-13T16:06:34;1.83;;;1.70;;
17993;SDS011;9122;48.406;9.984;2023-07-13T16:09:22;1.90;;;1.80;;
17993;SDS011;9122;48.406;9.984;2023-07-13T16:12:10;3.75;;;1.50;;
17993;SDS011;9122;48.406;9.984;2023-07-13T16:14:56;3.90;;;1.90;;
17993;SDS011;9122;48.406;9.984;2023-07-13T16:17:41;4.75;;;1.60;;
17993;SDS011;9122;48.406;9.984;2023-07-13T16:20:26;1.77;;;1.58;;
17993;SDS011;9122;48.406;9.984;2023-07-13T16:23:11;1.98;;;1.85;;
17993;SDS011;9122;48.406;9.984;2023-07-13T16:25:57;1.77;;;1.67;;
17993;SDS011;9122;48.406;9.984;2023-07-13T16:28:42;2.05;;;1.83;;
17993;SDS011;9122;48.406;9.984;2023-07-13T16:31:30;2.15;;;2.00;;
17993;SDS011;9122;48.406;9.984;2023-07-13T16:34:18;1.58;;;1.48;;
17993;SDS011;9122;48.406;9.984;2023-07-13T16:37:03;3.38;;;1.83;;
17993;SDS011;9122;48.406;9.984;2023-07-13T16:40:01;3.20;;;1.90;;
17993;SDS011;9122;48.406;9.984;2023-07-13T16:42:52;1.38;;;1.27;;
17993;SDS011;9122;48.406;9.984;2023-07-13T16:45:40;2.83;;;1.48;;
17993;SDS011;9122;48.406;9.984;2023-07-13T16:48:28;1.42;;;1.25;;
17993;SDS011;9122;48.406;9.984;2023-07-13T16:51:14;2.08;;;1.77;;
17993;SDS011;9122;48.406;9.984;2023-07-13T16:53:59;1.20;;;1.20;;
17993;SDS011;9122;48.406;9.984;2023-07-13T16:56:44;2.88;;;2.00;;
17993;SDS011;9122;48.406;9.984;2023-07-13T16:59:32;6.07;;;1.40;;
17993;SDS011;9122;48.406;9.984;2023-07-13T17:05:11;2.72;;;1.63;;
17993;SDS011;9122;48.406;9.984;2023-07-13T17:07:58;1.55;;;1.45;;
17993;SDS011;9122;48.406;9.984;2023-07-13T17:10:43;2.28;;;1.70;;
17993;SDS011;9122;48.406;9.984;2023-07-13T17:13:28;1.70;;;1.60;;
17993;SDS011;9122;48.406;9.984;2023-07-13T17:16:14;1.42;;;1.33;;
17993;SDS011;9122;48.406;9.984;2023-07-13T17:18:59;2.17;;;1.75;;
17993;SDS011;9122;48.406;9.984;2023-07-13T17:21:44;2.88;;;1.70;;
17993;SDS011;9122;48.406;9.984;2023-07-13T17:24:30;31.58;;;4.57;;
17993;SDS011;9122;48.406;9.984;2023-07-13T17:27:17;1.90;;;1.73;;
17993;SDS011;9122;48.406;9.984;2023-07-13T17:30:02;2.58;;;1.60;;
17993;SDS011;9122;48.406;9.984;2023-07-13T17:32:48;1.75;;;1.65;;
17993;SDS011;9122;48.406;9.984;2023-07-13T17:35:35;2.92;;;1.45;;